Time;durP1;ratioP1;P1;durP2;ratioP2;P2;SDS_P1;SDS_P2;PMS_P1;PMS_P2;Temp;Humidity;BMP_temperature;BMP_pressure;BME280_temperature;BME280_humidity;BME280_pressure;Samples;Min_cycle;Max_cycle;Signal;HPM_P1;HPM_P2
2021/01/08 09:28:13;;;;;;;;;;;;;;;;;;1574477;27;83592;-80
2021/01/08 09:28:58;;;;;;;;;31.50;30.00;;;;;;;;1572799;27;83374;-87
2021/01/08 09:29:44;;;;;;;;;33.75;33.50;;;;;;;;1564037;27;86676;-88
2021/01/08 09:30:29;;;;;;;;;36.00;35.00;;;;;;;;1553949;28;83401;-87
2021/01/08 09:31:14;;;;;;;;;43.50;40.00;;;;;;;;1556259;28;86407;-88
2021/01/08 09:32:01;;;;;;;;;34.25;32.75;;;;;;;;1560250;28;85759;-87
2021/01/08 09:32:46;;;;;;;;;28.00;28.00;;;;;;;;1558707;28;85557;-87
2021/01/08 09:33:31;;;;;;;;;;;;;;;;;;1563377;28;83987;-87
2021/01/08 09:34:16;;;;;;;;;;;;;;;;;;1561364;28;84991;-87
2021/01/08 09:35:02;;;;;;;;;;;;;;;;;;1563150;28;84937;-88
2021/01/08 09:35:48;;;;;;;;;;;;;;;;;;1562572;28;85243;-88
2021/01/08 09:36:33;;;;;;;;;;;;;;;;;;1565608;27;83623;-88
2021/01/08 09:37:18;;;;;;;;;;;;;;;;;;1563616;28;83542;-88
2021/01/08 09:38:03;;;;;;;;;;;;;;;;;;1558536;28;84527;-89
2021/01/08 09:38:48;;;;;;;;;;;;;;;;;;1561404;28;85203;-87
2021/01/08 09:39:33;;;;;;;;;;;;;;;;;;1562475;28;84583;-88
2021/01/08 09:40:20;;;;;;;;;;;;;;;;;;1564366;27;85089;-88
2021/01/08 09:41:05;;;;;;;;;;;;;;;;;;1559260;28;85259;-86
2021/01/08 09:41:50;;;;;;;;;;;;;;;;;;1556400;28;84968;-89
2021/01/08 09:42:35;;;;;;;;;;;;;;;;;;1564546;27;85646;-88
2021/01/08 09:43:20;;;;;;;;;;;;;;;;;;1565897;27;84629;-88
2021/01/08 09:44:05;;;;;;;;;;;;;;;;;;1567189;27;85189;-87
2021/01/08 09:44:50;;;;;;;;;;;;;;;;;;1568934;27;83754;-88
2021/01/08 09:45:36;;;;;;;;;;;;;;;;;;1572228;27;86150;-89
2021/01/08 09:46:22;;;;;;;;;;;;;;;;;;1567928;27;83582;-87
2021/01/08 09:47:07;;;;;;;;;;;;;;;;;;1569550;27;85482;-88
2021/01/08 09:47:52;;;;;;;;;;;;;;;;;;1571830;27;84680;-88
2021/01/08 09:48:37;;;;;;;;;;;;;;;;;;1568115;27;84639;-88
2021/01/08 09:49:22;;;;;;;;;;;;;;;;;;1572932;27;84994;-88
2021/01/08 09:50:07;;;;;;;;;;;;;;;;;;1572208;27;85209;-88
2021/01/08 09:50:52;;;;;;;;;;;;;;;;;;1568146;27;84251;-87
2021/01/08 09:51:40;;;;;;;;;;;;;;;;;;1570933;27;85095;-88
2021/01/08 09:52:25;;;;;;;;;;;;;;;;;;1572175;27;84364;-87
2021/01/08 09:53:10;;;;;;;;;;;;;;;;;;1569179;27;85040;-88
2021/01/08 09:53:56;;;;;;;;;;;;;;;;;;1558056;28;83015;-87
2021/01/08 09:54:41;;;;;;;;;;;;;;;;;;1559943;28;83981;-89
2021/01/08 09:55:26;;;;;;;;;;;;;;;;;;1563702;28;84027;-88
2021/01/08 09:56:11;;;;;;;;;;;;;;;;;;1556149;28;84251;-88
2021/01/08 09:56:56;;;;;;;;;;;;;;;;;;1564767;27;86607;-90
2021/01/08 09:57:43;;;;;;;;;;;;;;;;;;1571313;27;84914;-88
2021/01/08 09:58:28;;;;;;;;;;;;;;;;;;1567939;27;85874;-89
2021/01/08 09:59:13;;;;;;;;;;;;;;;;;;1559616;28;84188;-88
2021/01/08 09:59:58;;;;;;;;;;;;;;;;;;1566955;27;84302;-88
2021/01/08 10:00:43;;;;;;;;;;;;;;;;;;1567129;27;84018;-87
2021/01/08 10:01:28;;;;;;;;;;;;;;;;;;1562574;28;85196;-89
2021/01/08 10:02:14;;;;;;;;;;;;;;;;;;1562362;27;87005;-88
2021/01/08 10:02:59;;;;;;;;;;;;;;;;;;1564507;27;85447;-89
2021/01/08 10:03:44;;;;;;;;;;;;;;;;;;1568416;27;84111;-89
2021/01/08 10:04:29;;;;;;;;;;;;;;;;;;1566851;27;83865;-89
2021/01/08 10:05:14;;;;;;;;;;;;;;;;;;1565512;27;84295;-88
2021/01/08 10:05:59;;;;;;;;;;;;;;;;;;1565351;27;85176;-88
2021/01/08 10:06:44;;;;;;;;;;;;;;;;;;1562523;28;83996;-88
2021/01/08 10:07:29;;;;;;;;;;;;;;;;;;1564206;27;85475;-88
2021/01/08 10:08:15;;;;;;;;;;;;;;;;;;1566176;27;85871;-88
2021/01/08 10:09:00;;;;;;;;;;;;;;;;;;1558645;28;85242;-88
2021/01/08 10:09:45;;;;;;;;;;;;;;;;;;1563187;28;85500;-88
2021/01/08 10:10:30;;;;;;;;;;;;;;;;;;1562814;28;85495;-89
2021/01/08 10:11:15;;;;;;;;;;;;;;;;;;1560405;28;83550;-89
2021/01/08 10:12:00;;;;;;;;;;;;;;;;;;1565410;27;83099;-87
2021/01/08 10:12:45;;;;;;;;;;;;;;;;;;1567705;27;82784;-89
2021/01/08 10:13:32;;;;;;;;;;;;;;;;;;1560302;28;82614;-88
2021/01/08 10:14:17;;;;;;;;;;;;;;;;;;1561963;28;83128;-89
2021/01/08 10:15:06;;;;;;;;;;;;;;;;;;1566341;27;82443;-89
2021/01/08 10:15:51;;;;;;;;;;;;;;;;;;1574836;27;82730;-88
2021/01/08 10:16:36;;;;;;;;;;;;;;;;;;1573364;27;82520;-87
2021/01/08 10:17:21;;;;;;;;;;;;;;;;;;1570723;27;82591;-89
2021/01/08 10:18:07;;;;;;;;;;;;;;;;;;1575036;27;82650;-88
2021/01/08 10:18:52;;;;;;;;;;;;;;;;;;1569017;28;82857;-89
2021/01/08 10:19:37;;;;;;;;;;;;;;;;;;1570313;27;82529;-92
2021/01/08 10:20:24;;;;;;;;;;;;;;;;;;1568762;27;83376;-90
2021/01/08 10:21:12;;;;;;;;;;;;;;;;;;1568641;27;83488;-90
2021/01/08 10:21:58;;;;;;;;;;;;;;;;;;1562769;28;82689;-91
2021/01/08 10:22:43;;;;;;;;;;;;;;;;;;1565884;27;82982;-90
2021/01/08 10:23:28;;;;;;;;;;;;;;;;;;1569394;27;83500;-90
2021/01/08 10:24:13;;;;;;;;;;;;;;;;;;1569457;27;83452;-90
2021/01/08 10:24:58;;;;;;;;;;;;;;;;;;1569209;27;83479;-90
2021/01/08 10:25:43;;;;;;;;;;;;;;;;;;1563251;28;83398;-91
2021/01/08 10:26:28;;;;;;;;;;;;;;;;;;1563368;28;83072;-91
2021/01/08 10:27:13;;;;;;;;;;;;;;;;;;1564637;27;83509;-91
2021/01/08 10:27:59;;;;;;;;;;;;;;;;;;1564653;27;83115;-90
2021/01/08 10:28:44;;;;;;;;;;;;;;;;;;1563244;28;83432;-90
2021/01/08 10:29:29;;;;;;;;;;;;;;;;;;1565383;27;83261;-91
2021/01/08 10:30:15;;;;;;;;;;;;;;;;;;1563258;28;82932;-90
2021/01/08 10:31:00;;;;;;;;;;;;;;;;;;1565216;27;83146;-90
2021/01/08 10:31:45;;;;;;;;;;;;;;;;;;1569138;27;83504;-90
2021/01/08 10:32:31;;;;;;;;;;;;;;;;;;1572210;27;83398;-90
2021/01/08 10:33:16;;;;;;;;;;;;;;;;;;1563216;28;84876;-90
2021/01/08 10:34:01;;;;;;;;;;;;;;;;;;1564892;27;84959;-89
2021/01/08 10:34:46;;;;;;;;;;;;;;;;;;1569137;27;84814;-90
2021/01/08 10:35:31;;;;;;;;;;;;;;;;;;1568926;27;86085;-89
2021/01/08 10:36:16;;;;;;;;;;;;;;;;;;1564273;28;83722;-90
2021/01/08 10:37:01;;;;;;;;;;;;;;;;;;1565266;27;84750;-90
2021/01/08 10:37:47;;;;;;;;;;;;;;;;;;1565474;27;84479;-91
2021/01/08 10:38:32;;;;;;;;;;;;;;;;;;1561293;28;85072;-90
2021/01/08 10:39:17;;;;;;;;;;;;;;;;;;1561803;27;83496;-90
2021/01/08 10:40:02;;;;;;;;;;;;;;;;;;1564257;28;84652;-87
2021/01/08 10:40:47;;;;;;;;;;;;;;;;;;1566106;27;84110;-87
2021/01/08 10:41:32;;;;;;;;;;;;;;;;;;1570390;27;83818;-88
2021/01/08 10:42:17;;;;;;;;;;;;;;;;;;1567046;27;86098;-89
2021/01/08 10:43:04;;;;;;;;;;;;;;;;;;1558042;28;84856;-89
2021/01/08 10:43:49;;;;;;;;;;;;;;;;;;1562736;28;86283;-88
2021/01/08 10:44:34;;;;;;;;;;;;;;;;;;1569552;28;85086;-87
2021/01/08 10:45:19;;;;;;;;;;;;;;;;;;1571342;28;83470;-88
2021/01/08 10:46:04;;;;;;;;;;;;;;;;;;1571255;28;83660;-88
2021/01/08 10:46:49;;;;;;;;;;;;;;;;;;1568928;28;84809;-88
2021/01/08 10:47:35;;;;;;;;;;;;;;;;;;1571190;28;85101;-88
2021/01/08 10:48:20;;;;;;;;;;;;;;;;;;1570216;28;85202;-88
2021/01/08 10:49:05;;;;;;;;;;;;;;;;;;1567484;28;83345;-89
2021/01/08 10:49:51;;;;;;;;;;;;;;;;;;1571997;27;83725;-90
2021/01/08 10:50:36;;;;;;;;;;;;;;;;;;1572599;27;82417;-87
2021/01/08 10:51:21;;;;;;;;;;;;;;;;;;1572770;27;84751;-87
2021/01/08 10:52:07;;;;;;;;;;;;;;;;;;1572553;27;84863;-87
2021/01/08 10:52:52;;;;;;;;;;;;;;;;;;1569472;28;83971;-87
2021/01/08 10:53:37;;;;;;;;;;;;;;;;;;1571207;28;82887;-88
2021/01/08 10:54:22;;;;;;;;;;;;;;;;;;1572329;27;83106;-88
2021/01/08 10:55:07;;;;;;;;;;;;;;;;;;1566677;28;83146;-87
2021/01/08 10:55:52;;;;;;;;;;;;;;;;;;1565563;28;84041;-88
2021/01/08 10:56:37;;;;;;;;;;;;;;;;;;1566257;28;85685;-88
2021/01/08 10:57:22;;;;;;;;;;;;;;;;;;1565492;28;86606;-88
2021/01/08 10:58:07;;;;;;;;;;;;;;;;;;1564857;28;86683;-88
2021/01/08 10:58:53;;;;;;;;;;;;;;;;;;1558263;28;84137;-88
2021/01/08 10:59:38;;;;;;;;;;;;;;;;;;1560412;28;86937;-88
2021/01/08 11:00:23;;;;;;;;;;;;;;;;;;1565151;28;83061;-89
2021/01/08 11:01:08;;;;;;;;;;;;;;;;;;1566521;27;86701;-89
2021/01/08 11:01:53;;;;;;;;;;;;;;;;;;1564959;28;84052;-89
2021/01/08 11:02:38;;;;;;;;;;;;;;;;;;1564218;28;85022;-89
2021/01/08 11:03:23;;;;;;;;;;;;;;;;;;1564108;28;85227;-88
2021/01/08 11:04:09;;;;;;;;;;;;;;;;;;1557895;28;86778;-88
2021/01/08 11:04:54;;;;;;;;;;;;;;;;;;1559825;28;84338;-88
2021/01/08 11:05:39;;;;;;;;;;;;;;;;;;1564026;28;86536;-90
2021/01/08 11:06:24;;;;;;;;;;;;;;;;;;1563664;28;86820;-88
2021/01/08 11:07:09;;;;;;;;;;;;;;;;;;1557991;28;84189;-89
2021/01/08 11:07:54;;;;;;;;;;;;;;;;;;1556958;28;85938;-89
2021/01/08 11:08:39;;;;;;;;;;;;;;;;;;1559179;28;85724;-88
2021/01/08 11:09:24;;;;;;;;;;;;;;;;;;1556953;28;83764;-88
2021/01/08 11:10:09;;;;;;;;;;;;;;;;;;1557533;28;84328;-89
2021/01/08 11:10:55;;;;;;;;;;;;;;;;;;1552882;28;84526;-87
2021/01/08 11:11:40;;;;;;;;;;;;;;;;;;1557902;28;85808;-87
2021/01/08 11:12:26;;;;;;;;;;;;;;;;;;1558092;28;84434;-87
2021/01/08 11:13:11;;;;;;;;;;;;;;;;;;1557172;28;86618;-88
2021/01/08 11:13:56;;;;;;;;;;;;;;;;;;1557222;28;85288;-89
2021/01/08 11:14:41;;;;;;;;;;;;;;;;;;1557421;28;86081;-88
2021/01/08 11:15:27;;;;;;;;;;;;;;;;;;1564296;28;85459;-89
2021/01/08 11:16:12;;;;;;;;;;;;;;;;;;1558961;28;83245;-88
2021/01/08 11:16:57;;;;;;;;;;;;;;;;;;1565180;27;83262;-88
2021/01/08 11:17:42;;;;;;;;;;;;;;;;;;1569574;27;84990;-89
2021/01/08 11:18:27;;;;;;;;;;;;;;;;;;1569566;27;84997;-88
2021/01/08 11:19:12;;;;;;;;;;;;;;;;;;1563321;28;83576;-88
2021/01/08 11:19:57;;;;;;;;;;;;;;;;;;1565241;27;84290;-88
2021/01/08 11:20:42;;;;;;;;;;;;;;;;;;1567869;27;84738;-89
2021/01/08 11:21:27;;;;;;;;;;;;;;;;;;1563321;27;84060;-88
2021/01/08 11:22:13;;;;;;;;;;;;;;;;;;1557473;28;83555;-89
2021/01/08 11:22:59;;;;;;;;;;;;;;;;;;1557283;28;83426;-88
2021/01/08 11:23:44;;;;;;;;;;;;;;;;;;1551003;28;83516;-89
2021/01/08 11:24:29;;;;;;;;;;;;;;;;;;1561595;28;83584;-89
2021/01/08 11:25:15;;;;;;;;;;;;;;;;;;1566072;27;84527;-89
2021/01/08 11:26:00;;;;;;;;;;;;;;;;;;1564589;27;82931;-90
2021/01/08 11:26:45;;;;;;;;;;;;;;;;;;1557036;28;83623;-89
2021/01/08 11:27:30;;;;;;;;;;;;;;;;;;1559668;28;83551;-89
2021/01/08 11:28:15;;;;;;;;;;;;;;;;;;1559379;28;85193;-89
2021/01/08 11:29:00;;;;;;;;;;;;;;;;;;1557635;28;83446;-89
2021/01/08 11:29:45;;;;;;;;;;;;;;;;;;1559434;28;83547;-88
2021/01/08 11:30:30;;;;;;;;;;;;;;;;;;1563954;28;83982;-89
2021/01/08 11:31:17;;;;;;;;;;;;;;;;;;1563625;28;83152;-88
2021/01/08 11:32:02;;;;;;;;;;;;;;;;;;1557279;28;84714;-89
2021/01/08 11:32:47;;;;;;;;;;;;;;;;;;1557069;28;84444;-89
2021/01/08 11:33:32;;;;;;;;;;;;;;;;;;1557033;28;83523;-90
2021/01/08 11:34:17;;;;;;;;;;;;;;;;;;1558800;28;83424;-89
2021/01/08 11:35:03;;;;;;;;;;;;;;;;;;1559007;28;83081;-89
2021/01/08 11:35:48;;;;;;;;;;;;;;;;;;1557529;28;83977;-89
2021/01/08 11:36:33;;;;;;;;;;;;;;;;;;1558197;28;83325;-89
2021/01/08 11:37:18;;;;;;;;;;;;;;;;;;1553234;28;84849;-89
2021/01/08 11:38:09;;;;;;;;;;;;;;;;;;1559165;28;86975;-89
2021/01/08 11:39:51;;;;;;;;;38.20;37.60;;;;;;;;1551883;28;83605;-91
2021/01/08 11:40:37;;;;;;;;;43.50;43.25;;;;;;;;1546629;28;84479;-90
2021/01/08 11:41:25;;;;;;;;;39.00;39.00;;;;;;;;1542244;28;85751;-91
2021/01/08 11:42:10;;;;;;;;;;;;;;;;;;1544741;28;85593;-91
2021/01/08 11:42:56;;;;;;;;;;;;;;;;;;1543619;28;85883;-90
2021/01/08 11:43:41;;;;;;;;;;;;;;;;;;1545520;28;84619;-90
2021/01/08 11:44:26;;;;;;;;;;;;;;;;;;1551537;28;85976;-90
2021/01/08 11:45:11;;;;;;;;;;;;;;;;;;1549884;28;84432;-90
2021/01/08 11:45:56;;;;;;;;;;;;;;;;;;1545562;28;86108;-91
2021/01/08 11:46:41;;;;;;;;;;;;;;;;;;1549679;28;86055;-90
2021/01/08 11:47:26;;;;;;;;;;;;;;;;;;1549777;28;86069;-91
2021/01/08 11:48:11;;;;;;;;;;;;;;;;;;1556044;28;84348;-90
2021/01/08 11:48:56;;;;;;;;;;;;;;;;;;1551782;28;85079;-91
2021/01/08 11:49:42;;;;;;;;;;;;;;;;;;1549608;28;85058;-91
2021/01/08 11:50:27;;;;;;;;;;;;;;;;;;1557933;28;85133;-90
2021/01/08 11:51:13;;;;;;;;;;;;;;;;;;1556560;28;84358;-91
2021/01/08 11:51:58;;;;;;;;;;;;;;;;;;1548268;28;85305;-91
2021/01/08 11:52:43;;;;;;;;;;;;;;;;;;1545897;28;84541;-91
2021/01/08 11:53:28;;;;;;;;;;;;;;;;;;1550011;28;84436;-90
2021/01/08 11:54:14;;;;;;;;;;;;;;;;;;1543901;28;83818;-90
2021/01/08 11:54:59;;;;;;;;;;;;;;;;;;1540143;28;86515;-91
2021/01/08 11:55:44;;;;;;;;;;;;;;;;;;1546842;28;85736;-89
2021/01/08 11:56:29;;;;;;;;;;;;;;;;;;1550961;28;86271;-88
2021/01/08 11:57:14;;;;;;;;;;;;;;;;;;1561980;28;83788;-90
2021/01/08 11:57:59;;;;;;;;;;;;;;;;;;1557958;28;86073;-90
2021/01/08 11:58:45;;;;;;;;;;;;;;;;;;1554078;28;84471;-89
2021/01/08 11:59:30;;;;;;;;;;;;;;;;;;1549604;28;85419;-90
2021/01/08 12:00:15;;;;;;;;;;;;;;;;;;1557952;28;84655;-90
2021/01/08 12:01:00;;;;;;;;;;;;;;;;;;1560692;28;86272;-90
2021/01/08 12:01:45;;;;;;;;;;;;;;;;;;1560223;28;84541;-90
2021/01/08 12:02:30;;;;;;;;;;;;;;;;;;1558239;28;85604;-89
2021/01/08 12:03:15;;;;;;;;;;;;;;;;;;1556041;28;84081;-90
2021/01/08 12:04:00;;;;;;;;;;;;;;;;;;1553791;28;85384;-90
2021/01/08 12:04:46;;;;;;;;;;;;;;;;;;1555951;28;87284;-90
2021/01/08 12:05:31;;;;;;;;;;;;;;;;;;1551737;28;86004;-90
2021/01/08 12:06:16;;;;;;;;;;;;;;;;;;1547581;28;85390;-90
2021/01/08 12:07:01;;;;;;;;;;;;;;;;;;1539279;28;85723;-90
2021/01/08 12:07:46;;;;;;;;;;;;;;;;;;1539380;28;87067;-90
2021/01/08 12:08:32;;;;;;;;;;;;;;;;;;1545496;28;84406;-90
2021/01/08 12:09:17;;;;;;;;;;;;;;;;;;1544215;28;87189;-90
2021/01/08 12:10:02;;;;;;;;;;;;;;;;;;1541352;28;86763;-90
2021/01/08 12:10:47;;;;;;;;;;;;;;;;;;1540948;28;85391;-89
2021/01/08 12:11:32;;;;;;;;;;;;;;;;;;1544293;28;85801;-90
2021/01/08 12:12:17;;;;;;;;;;;;;;;;;;1541332;28;86773;-90
2021/01/08 12:13:02;;;;;;;;;;;;;;;;;;1542398;28;85649;-89
2021/01/08 12:13:48;;;;;;;;;;;;;;;;;;1547253;28;84018;-89
2021/01/08 12:14:33;;;;;;;;;;;;;;;;;;1553767;28;85712;-90
2021/01/08 12:15:18;;;;;;;;;;;;;;;;;;1551014;28;85178;-89
2021/01/08 12:16:03;;;;;;;;;;;;;;;;;;1550718;28;84458;-90
2021/01/08 12:16:48;;;;;;;;;;;;;;;;;;1551706;28;86687;-90
2021/01/08 12:17:33;;;;;;;;;;;;;;;;;;1549868;28;85719;-90
2021/01/08 12:18:18;;;;;;;;;;;;;;;;;;1549611;28;85558;-88
2021/01/08 12:19:03;;;;;;;;;;;;;;;;;;1551472;28;85454;-91
2021/01/08 12:19:49;;;;;;;;;;;;;;;;;;1549423;28;86848;-90
2021/01/08 12:20:36;;;;;;;;;;;;;;;;;;1549012;28;84240;-90
2021/01/08 12:21:22;;;;;;;;;;;;;;;;;;1546494;28;85471;-89
2021/01/08 12:22:08;;;;;;;;;;;;;;;;;;1552057;28;85183;-90
2021/01/08 12:22:53;;;;;;;;;;;;;;;;;;1549913;28;83500;-89
2021/01/08 12:23:38;;;;;;;;;;;;;;;;;;1549743;28;82854;-90
2021/01/08 12:24:23;;;;;;;;;;;;;;;;;;1551812;28;83569;-90
2021/01/08 12:25:09;;;;;;;;;;;;;;;;;;1547646;28;83602;-90
2021/01/08 12:25:54;;;;;;;;;;;;;;;;;;1548214;28;83638;-90
2021/01/08 12:26:39;;;;;;;;;;;;;;;;;;1545964;28;83614;-90
2021/01/08 12:27:24;;;;;;;;;;;;;;;;;;1543842;28;83443;-90
2021/01/08 12:28:09;;;;;;;;;;;;;;;;;;1551736;28;83156;-90
2021/01/08 12:28:54;;;;;;;;;;;;;;;;;;1551756;28;83123;-90
2021/01/08 12:29:39;;;;;;;;;;;;;;;;;;1547380;28;83564;-90
2021/01/08 12:30:24;;;;;;;;;;;;;;;;;;1551370;28;83430;-90
2021/01/08 12:31:10;;;;;;;;;;;;;;;;;;1551589;28;83620;-91
2021/01/08 12:31:59;;;;;;;;;33.25;33.25;;;;;;;;1545127;28;83561;-89
2021/01/08 12:32:45;;;;;;;;;38.60;36.00;;;;;;;;1542729;28;85914;-90
2021/01/08 12:33:30;;;;;;;;;2.75;0.00;;;;;;;;1546768;28;84500;-90
2021/01/08 12:34:15;;;;;;;;;30.25;30.25;;;;;;;;1541112;28;83068;-90
2021/01/08 12:35:00;;;;;;;;;33.50;32.25;;;;;;;;1543875;28;83207;-89
2021/01/08 12:35:46;;;;;;;;;;;;;;;;;;1544094;28;86338;-90
2021/01/08 12:36:31;;;;;;;;;;;;;;;;;;1544276;28;83150;-90
2021/01/08 12:37:16;;;;;;;;;;;;;;;;;;1551949;28;83103;-90
2021/01/08 12:38:02;;;;;;;;;;;;;;;;;;1552228;28;83471;-90
2021/01/08 12:38:48;;;;;;;;;;;;;;;;;;1554249;28;83405;-90
2021/01/08 12:39:34;;;;;;;;;;;;;;;;;;1543348;28;83535;-89
2021/01/08 12:40:19;;;;;;;;;;;;;;;;;;1539752;28;82826;-90
2021/01/08 12:41:04;;;;;;;;;;;;;;;;;;1544970;28;83622;-87
2021/01/08 12:41:49;;;;;;;;;;;;;;;;;;1543604;28;83433;-90
2021/01/08 12:42:35;;;;;;;;;;;;;;;;;;1545736;28;82944;-89
2021/01/08 12:43:20;;;;;;;;;;;;;;;;;;1545474;28;83671;-89
2021/01/08 12:44:05;;;;;;;;;;;;;;;;;;1546222;28;82960;-90
2021/01/08 12:44:50;;;;;;;;;;;;;;;;;;1545574;28;83609;-90
2021/01/08 12:45:35;;;;;;;;;;;;;;;;;;1545345;28;85640;-90
2021/01/08 12:46:20;;;;;;;;;;;;;;;;;;1543678;28;86310;-89
2021/01/08 12:47:05;;;;;;;;;;;;;;;;;;1543349;28;84542;-89
2021/01/08 12:47:51;;;;;;;;;;;;;;;;;;1551872;28;84564;-90
2021/01/08 12:48:36;;;;;;;;;;;;;;;;;;1552189;28;86134;-90
2021/01/08 12:49:21;;;;;;;;;;;;;;;;;;1548020;28;83641;-90
2021/01/08 12:50:06;;;;;;;;;;;;;;;;;;1552145;28;84943;-90
2021/01/08 12:50:51;;;;;;;;;;;;;;;;;;1552646;28;85873;-90
2021/01/08 12:51:36;;;;;;;;;;;;;;;;;;1542598;28;86200;-90
2021/01/08 12:52:21;;;;;;;;;;;;;;;;;;1542019;28;83283;-90
2021/01/08 12:53:06;;;;;;;;;;;;;;;;;;1540225;28;84428;-91
2021/01/08 12:53:52;;;;;;;;;;;;;;;;;;1539929;28;85289;-90
2021/01/08 12:54:37;;;;;;;;;;;;;;;;;;1535679;28;84525;-90
2021/01/08 12:55:22;;;;;;;;;;;;;;;;;;1535543;28;85734;-90
2021/01/08 12:56:08;;;;;;;;;;;;;;;;;;1541431;28;83468;-90
2021/01/08 12:56:53;;;;;;;;;;;;;;;;;;1541339;28;85114;-90
2021/01/08 12:57:38;;;;;;;;;;;;;;;;;;1537611;28;84255;-90
2021/01/08 12:58:23;;;;;;;;;;;;;;;;;;1541168;28;84785;-90
2021/01/08 12:59:08;;;;;;;;;;;;;;;;;;1541238;28;84903;-90
2021/01/08 12:59:53;;;;;;;;;;;;;;;;;;1537381;28;84556;-90
2021/01/08 13:00:38;;;;;;;;;;;;;;;;;;1541171;28;84613;-90
2021/01/08 13:01:23;;;;;;;;;;;;;;;;;;1541488;28;83522;-90
2021/01/08 13:02:09;;;;;;;;;;;;;;;;;;1537538;28;83638;-90
2021/01/08 13:02:54;;;;;;;;;;;;;;;;;;1541261;28;83968;-90
2021/01/08 13:03:39;;;;;;;;;;;;;;;;;;1541146;28;84757;-90
2021/01/08 13:04:24;;;;;;;;;;;;;;;;;;1537594;28;83866;-90
2021/01/08 13:05:09;;;;;;;;;;;;;;;;;;1543411;28;84637;-90
2021/01/08 13:05:55;;;;;;;;;;;;;;;;;;1540968;28;85145;-90
2021/01/08 13:06:40;;;;;;;;;;;;;;;;;;1536063;28;83998;-90
2021/01/08 13:07:25;;;;;;;;;;;;;;;;;;1541416;28;84074;-90
2021/01/08 13:08:10;;;;;;;;;;;;;;;;;;1541090;28;86910;-89
2021/01/08 13:08:55;;;;;;;;;;;;;;;;;;1537221;28;84302;-89
2021/01/08 13:09:40;;;;;;;;;;;;;;;;;;1535048;28;83089;-88
2021/01/08 13:10:25;;;;;;;;;;;;;;;;;;1541451;28;84377;-90
2021/01/08 13:11:10;;;;;;;;;;;;;;;;;;1546023;28;85459;-89
2021/01/08 13:11:56;;;;;;;;;;;;;;;;;;1545466;28;85154;-90
2021/01/08 13:12:41;;;;;;;;;;;;;;;;;;1545251;28;84400;-90
2021/01/08 13:13:26;;;;;;;;;;;;;;;;;;1551542;28;85336;-90
2021/01/08 13:14:11;;;;;;;;;;;;;;;;;;1547396;28;86141;-91
2021/01/08 13:14:57;;;;;;;;;;;;;;;;;;1549398;28;85535;-89
2021/01/08 13:15:42;;;;;;;;;;;;;;;;;;1538268;28;85173;-91
2021/01/08 13:16:27;;;;;;;;;;;;;;;;;;1539417;28;85029;-90
2021/01/08 13:17:12;;;;;;;;;;;;;;;;;;1522959;28;85553;-90
2021/01/08 13:18:29;;;;;;;;;42.00;40.20;;;;;;;;1572844;27;83571;-85
2021/01/08 13:19:15;;;;;;;;;44.25;41.25;;;;;;;;1572109;27;86209;-86
2021/01/08 13:20:00;;;;;;;;;41.50;39.25;;;;;;;;1559992;27;86778;-85
2021/01/08 13:20:45;;;;;;;;;39.25;34.75;;;;;;;;1551267;28;83886;-85
2021/01/08 13:21:30;;;;;;;;;33.75;33.75;;;;;;;;1555874;28;84946;-85
2021/01/08 13:22:15;;;;;;;;;36.00;36.00;;;;;;;;1564889;27;85238;-86
2021/01/08 13:23:01;;;;;;;;;36.25;33.25;;;;;;;;1558967;27;86073;-86
2021/01/08 13:23:46;;;;;;;;;51.00;41.75;;;;;;;;1556510;28;86363;-85
2021/01/08 13:24:31;;;;;;;;;42.75;39.00;;;;;;;;1548349;28;86243;-86
2021/01/08 13:25:17;;;;;;;;;40.25;38.00;;;;;;;;1553694;28;86162;-86
2021/01/08 13:26:02;;;;;;;;;46.25;41.50;;;;;;;;1558765;28;83271;-86
2021/01/08 13:26:48;;;;;;;;;43.00;38.00;;;;;;;;1558680;28;86509;-86
2021/01/08 13:27:36;;;;;;;;;47.75;40.25;;;;;;;;1552847;28;85200;-83
2021/01/08 13:28:21;;;;;;;;;40.00;37.40;;;;;;;;1561273;27;85533;-84
2021/01/08 13:29:06;;;;;;;;;46.75;38.75;;;;;;;;1561008;27;84657;-84
2021/01/08 13:29:51;;;;;;;;;41.75;38.50;;;;;;;;1556474;28;84806;-84
2021/01/08 13:30:37;;;;;;;;;46.75;38.00;;;;;;;;1548236;28;86351;-83
2021/01/08 13:31:23;;;;;;;;;38.75;36.50;;;;;;;;1554142;28;86450;-83
2021/01/08 13:32:08;;;;;;;;;48.60;42.00;;;;;;;;1558497;28;86842;-83
2021/01/08 13:32:54;;;;;;;;;39.50;37.00;;;;;;;;1558650;28;83858;-84
2021/01/08 13:33:39;;;;;;;;;43.50;40.25;;;;;;;;1558931;28;83921;-84
2021/01/08 13:34:24;;;;;;;;;38.25;37.25;;;;;;;;1571330;27;85079;-84
2021/01/08 13:35:10;;;;;;;;;42.00;35.75;;;;;;;;1564548;27;85608;-84
2021/01/08 13:35:55;;;;;;;;;44.50;38.75;;;;;;;;1557965;27;85103;-84
2021/01/08 13:36:40;;;;;;;;;38.00;36.75;;;;;;;;1554480;28;86495;-84
2021/01/08 13:37:25;;;;;;;;;41.75;38.25;;;;;;;;1558789;28;83278;-84
2021/01/08 13:38:10;;;;;;;;;38.25;36.75;;;;;;;;1554275;28;86105;-84
2021/01/08 13:38:56;;;;;;;;;39.75;37.75;;;;;;;;1552416;28;86737;-83
2021/01/08 13:39:41;;;;;;;;;33.75;30.75;;;;;;;;1557061;28;86938;-84
2021/01/08 13:40:27;;;;;;;;;35.75;34.75;;;;;;;;1561301;27;84378;-84
2021/01/08 13:41:12;;;;;;;;;37.00;36.20;;;;;;;;1563058;27;84360;-84
2021/01/08 13:42:01;;;;;;;;;43.25;36.75;;;;;;;;1571239;27;86882;-84
2021/01/08 13:42:46;;;;;;;;;42.20;37.80;;;;;;;;1564932;27;86977;-84
2021/01/08 13:43:33;;;;;;;;;36.75;35.00;;;;;;;;1562545;27;84093;-84
2021/01/08 13:44:18;;;;;;;;;37.20;35.40;;;;;;;;1567256;27;86849;-84
2021/01/08 13:45:04;;;;;;;;;40.75;36.50;;;;;;;;1564810;27;87303;-84
2021/01/08 13:45:50;;;;;;;;;39.40;37.60;;;;;;;;1556157;28;86848;-84
2021/01/08 13:46:35;;;;;;;;;32.00;32.00;;;;;;;;1548350;28;84389;-83
2021/01/08 13:47:26;;;;;;;;;39.50;36.00;;;;;;;;1554490;28;84492;-84
2021/01/08 13:48:11;;;;;;;;;19.80;19.80;;;;;;;;1555080;28;87289;-84
2021/01/08 13:48:56;;;;;;;;;34.25;33.75;;;;;;;;1558498;28;87368;-84
2021/01/08 13:49:41;;;;;;;;;37.75;34.75;;;;;;;;1558892;27;84457;-83
2021/01/08 13:50:27;;;;;;;;;36.75;34.75;;;;;;;;1558849;28;84125;-84
2021/01/08 13:51:25;;;;;;;;;37.75;36.25;;;;;;;;1560714;27;84170;-83
2021/01/08 13:52:10;;;;;;;;;34.00;32.40;;;;;;;;1564763;27;85813;-84
2021/01/08 13:52:56;;;;;;;;;32.75;30.75;;;;;;;;1558634;28;87095;-83
2021/01/08 13:53:41;;;;;;;;;33.00;31.75;;;;;;;;1558580;28;84197;-84
2021/01/08 13:54:26;;;;;;;;;33.50;33.00;;;;;;;;1558781;28;84250;-84
2021/01/08 13:55:12;;;;;;;;;39.00;35.25;;;;;;;;1559106;27;84406;-84
2021/01/08 13:55:57;;;;;;;;;41.75;35.00;;;;;;;;1558431;28;87318;-83
2021/01/08 13:56:45;;;;;;;;;38.00;35.75;;;;;;;;1558488;28;87334;-84
2021/01/08 13:57:31;;;;;;;;;28.00;27.60;;;;;;;;1564968;27;87357;-84
2021/01/08 13:58:16;;;;;;;;;29.00;28.50;;;;;;;;1567400;27;83462;-83
2021/01/08 13:59:01;;;;;;;;;32.25;32.25;;;;;;;;1567372;27;84512;-83
2021/01/08 13:59:46;;;;;;;;;35.25;34.75;;;;;;;;1558909;28;84455;-83
2021/01/08 14:00:33;;;;;;;;;36.25;35.25;;;;;;;;1571026;27;86939;-84
2021/01/08 14:01:18;;;;;;;;;33.80;33.20;;;;;;;;1571162;27;84537;-83
2021/01/08 14:02:03;;;;;;;;;32.50;32.50;;;;;;;;1569394;27;83272;-84
2021/01/08 14:02:48;;;;;;;;;30.75;30.00;;;;;;;;1558519;28;86062;-83
2021/01/08 14:03:34;;;;;;;;;30.00;27.50;;;;;;;;1552297;28;86370;-83
2021/01/08 14:04:19;;;;;;;;;26.75;26.75;;;;;;;;1554299;28;85443;-84
2021/01/08 14:05:06;;;;;;;;;28.75;28.75;;;;;;;;1555600;28;86565;-83
2021/01/08 14:05:52;;;;;;;;;33.80;33.80;;;;;;;;1553836;28;86436;-84
2021/01/08 14:06:40;;;;;;;;;27.20;27.20;;;;;;;;1560933;27;84013;-84
2021/01/08 14:07:25;;;;;;;;;31.00;29.20;;;;;;;;1561063;27;86566;-83
2021/01/08 14:08:10;;;;;;;;;36.75;34.50;;;;;;;;1564825;27;83287;-84
2021/01/08 14:08:56;;;;;;;;;29.00;29.00;;;;;;;;1560396;27;86206;-84
2021/01/08 14:09:41;;;;;;;;;38.00;37.00;;;;;;;;1563499;27;83557;-84
2021/01/08 14:10:26;;;;;;;;;31.25;31.25;;;;;;;;1557522;28;86689;-84
2021/01/08 14:11:11;;;;;;;;;35.75;34.00;;;;;;;;1558432;28;86152;-84
2021/01/08 14:12:00;;;;;;;;;38.75;35.00;;;;;;;;1558522;28;83822;-83
2021/01/08 14:12:46;;;;;;;;;32.40;31.60;;;;;;;;1558600;28;83617;-83
2021/01/08 14:13:31;;;;;;;;;33.50;32.25;;;;;;;;1559112;27;83306;-84
2021/01/08 14:14:16;;;;;;;;;33.50;32.75;;;;;;;;1558914;28;83692;-84
2021/01/08 14:15:01;;;;;;;;;34.00;32.50;;;;;;;;1558671;28;83397;-84
2021/01/08 14:15:47;;;;;;;;;37.00;35.25;;;;;;;;1558322;28;85027;-84
2021/01/08 14:16:32;;;;;;;;;23.75;23.75;;;;;;;;1558600;28;83421;-84
2021/01/08 14:17:17;;;;;;;;;34.00;33.25;;;;;;;;1560517;27;85269;-84
2021/01/08 14:18:03;;;;;;;;;28.25;28.25;;;;;;;;1564506;27;83788;-84
2021/01/08 14:18:48;;;;;;;;;30.00;30.00;;;;;;;;1558324;28;85361;-83
2021/01/08 14:19:33;;;;;;;;;34.75;31.25;;;;;;;;1561605;27;83980;-84
2021/01/08 14:20:19;;;;;;;;;30.00;29.00;;;;;;;;1554420;27;86215;-84
2021/01/08 14:21:04;;;;;;;;;29.75;28.25;;;;;;;;1564010;27;83490;-84
2021/01/08 14:21:49;;;;;;;;;28.75;28.75;;;;;;;;1560502;27;86481;-84
2021/01/08 14:22:34;;;;;;;;;31.75;29.50;;;;;;;;1564757;27;83637;-84
2021/01/08 14:23:20;;;;;;;;;29.25;29.25;;;;;;;;1567514;27;86213;-84
2021/01/08 14:24:05;;;;;;;;;27.25;26.75;;;;;;;;1558343;28;86025;-84
2021/01/08 14:24:51;;;;;;;;;28.50;27.25;;;;;;;;1556660;28;83224;-83
2021/01/08 14:25:37;;;;;;;;;28.75;27.50;;;;;;;;1558639;28;83882;-84